Latest Coastal Weather Observations for Mornington Island Airport

IDQ60701

Issued at 4:12 am EST Monday 26 January 2015 (issued every 10 minutes, with the page automatically refreshed every 10 minutes)

About coastal observations | Map of coastal stations | Coastal observations for QLD | Marine services | Other Formats
Station Details ID: 029182 Name: MORNINGTON ISLAND AIRPORT Lat: -16.66 Lon: 139.17 Height: 9.0 m
Data from the previous 72 hours. | See also: Recent months at Mornington Island Airport
Date/Time
EST
Temp

°C
Wind Pressure Rain
since 9am
mm
Weather Cloud Vis
km
Sea
Height
m
Swell
Dir
 
Speed
knots
Gust
knots
hPa Trend Height
m
Period
s
Dir
26/04:00am 26.8 E 5 5 1005.4 - 0.2 - - - - - - -
26/03:30am 27.2 ESE 7 8 1005.6 - 0.2 - - - - - - -
26/03:00am 26.8 SSE 2 4 1005.5 - 0.2 - - - - - - -
26/02:30am 27.2 SSE 3 5 1006.2 - 0.2 - - - - - - -
26/02:00am 27.4 SSE 6 13 1006.9 - 0.2 - - - - - - -
26/01:30am 27.4 SSE 4 7 1007.3 - 0.2 - - - - - - -
26/01:00am 27.1 S 3 4 1007.1 - 0.2 - - - - - - -
26/12:30am 27.2 CALM 0 0 1007.2 - 0.2 - - - - - - -
26/12:00am 27.9 NNW 4 6 1007.3 - 0.2 - - - - - - -
 
Date/Time
EST
Temp

°C
Wind Pressure Rain
since 9am
mm
Weather Cloud Vis
km
Sea
Height
m
Swell
Dir
 
Speed
knots
Gust
knots
hPa Trend Height
m
Period
s
Dir
25/11:30pm 28.0 W 6 8 1007.6 - 0.2 - - - - - - -
25/11:00pm 28.3 WSW 5 8 1007.6 - 0.2 - - - - - - -
25/10:30pm 28.7 WSW 5 8 1007.3 - 0.2 - - - - - - -
25/10:00pm 28.9 WSW 5 7 1006.9 - 0.2 - - - - - - -
25/09:30pm 29.2 W 6 9 1006.9 - 0.2 - - - - - - -
25/09:00pm 29.4 WSW 5 8 1007.2 - 0.2 - - - - - - -
25/08:30pm 29.9 WNW 9 12 1007.3 - 0.2 - - - - - - -
25/08:00pm 29.9 WNW 9 12 1007.3 - 0.2 - - - - - - -
25/07:30pm 29.9 NW 8 10 1006.7 - 0.2 - - - - - - -
25/07:00pm 30.2 NW 8 11 1005.8 - 0.2 - - - - - - -
25/06:30pm 30.4 NNW 9 11 1005.6 - 0.2 - - - - - - -
25/06:00pm 30.6 NNW 9 11 1004.9 - 0.2 - - - - - - -
25/05:30pm 30.7 NNW 11 14 1004.8 - 0.2 - - - - - - -
25/05:00pm 31.0 NW 11 13 1005.9 - 0.2 - - - - - - -
25/04:30pm 31.8 NW 13 17 1005.7 - 0.2 - - - - - - -
25/04:00pm 31.3 NW 14 17 1005.1 - 0.2 - - - - - - -
25/03:30pm 32.1 NW 15 19 1005.7 - 0.2 - - - - - - -
25/03:00pm 31.2 NNW 17 23 1006.1 - 0.2 - - - - - - -
25/02:30pm 32.0 NNW 14 19 1006.1 - 0.2 - - - - - - -
25/02:00pm 32.0 NNW 14 17 1006.3 - 0.2 - - - - - - -
25/01:30pm 32.0 NW 13 16 1006.9 - 0.2 - - - - - - -
25/01:00pm 31.2 NW 13 15 1007.6 - 0.2 - - - - - - -
25/12:30pm 31.3 N 12 16 1007.8 - 0.2 - - - - - - -
25/12:00pm 32.1 N 12 17 1007.9 - 0.2 - - - - - - -
25/11:30am 31.9 N 12 16 1008.3 - 0.2 - - - - - - -
25/11:00am 31.9 NNW 12 17 1008.5 - 0.2 - - - - - - -
25/10:30am 31.6 NNW 13 16 1008.6 - 0.2 - - - - - - -
25/10:00am 31.5 NNW 9 13 1008.9 - 0.2 - - - - - - -
25/09:30am 31.0 NNW 9 12 1008.7 - 0.2 - - - - - - -
25/09:00am 30.7 NNW 8 11 1008.8 - 7.4 - - - - - - -
25/08:30am 30.5 NNW 9 11 1008.7 - 7.4 - - - - - - -
25/08:00am 30.1 NNW 9 12 1008.1 - 7.4 - - - - - - -
25/07:30am 29.8 NNW 10 13 1007.7 - 7.4 - - - - - - -
25/07:00am 29.7 NNW 9 13 1007.3 - 7.4 - - - - - - -
25/06:30am 29.2 NNW 9 13 1007.0 - 7.4 - - - - - - -
25/06:00am 29.4 NNW 12 15 1006.5 - 7.4 - - - - - - -
25/05:30am 29.2 NNW 10 13 1006.1 - 7.4 - - - - - - -
25/05:00am 29.1 NNW 9 13 1006.0 - 7.4 - - - - - - -
25/04:30am 29.1 NNW 10 14 1006.0 - 7.4 - - - - - - -
25/04:00am 29.2 NNW 10 14 1006.0 - 7.4 - - - - - - -
25/03:30am 29.2 NNW 9 14 1006.0 - 7.4 - - - - - - -
25/03:00am 29.0 NNW 9 12 1006.0 - 7.4 - - - - - - -
25/02:30am 29.1 N 9 13 1006.2 - 7.4 - - - - - - -
25/02:00am 29.0 N 9 12 1006.2 - 7.4 - - - - - - -
25/01:30am 28.8 N 6 9 1006.5 - 7.4 - - - - - - -
25/01:00am 29.1 N 9 12 1006.8 - 7.4 - - - - - - -
25/12:30am 29.1 N 8 11 1006.9 - 7.4 - - - - - - -
25/12:00am 28.9 N 7 10 1007.1 - 7.4 - - - - - - -
 
Date/Time
EST
Temp

°C
Wind Pressure Rain
since 9am
mm
Weather Cloud Vis
km
Sea
Height
m
Swell
Dir
 
Speed
knots
Gust
knots
hPa Trend Height
m
Period
s
Dir
24/11:30pm 28.8 N 8 11 1007.3 - 7.4 - - - - - - -
24/11:00pm 28.5 NNE 7 9 1007.5 - 7.4 - - - - - - -
24/10:30pm 28.5 N 7 9 1007.6 - 7.4 - - - - - - -
24/10:00pm 28.1 NNE 6 8 1007.3 - 7.4 - - - - - - -
24/09:30pm 28.2 NE 5 7 1007.4 - 7.4 - - - - - - -
24/09:00pm 28.4 NNE 7 12 1007.2 - 7.4 - - - - - - -
24/08:30pm 28.5 NNE 7 11 1006.9 - 7.4 - - - - - - -
24/08:00pm 28.4 NNE 7 10 1006.5 - 7.4 - - - - - - -
24/07:30pm 28.7 NNE 10 13 1006.2 - 7.4 - - - - - - -
24/07:00pm 29.2 NNE 9 13 1006.1 - 7.4 - - - - - - -
24/06:30pm 29.4 NNE 8 11 1005.4 - 7.4 - - - - - - -
24/06:00pm 29.5 NNE 10 14 1004.5 - 7.4 - - - - - - -
24/05:30pm 29.7 NNE 9 13 1004.0 - 7.4 - - - - - - -
24/05:00pm 29.6 NNE 9 13 1004.2 - 7.4 - - - - - - -
24/04:30pm 29.5 NNE 9 12 1004.4 - 7.4 - - - - - - -
24/04:00pm 29.5 NW 5 10 1004.5 - 7.4 - - - - - - -
24/03:30pm 28.3 N 7 9 1004.2 - 7.4 - - - - - - -
24/03:00pm 25.2 ESE 16 24 1005.8 - 6.2 Rain - - - - - -
24/02:53pm 26.4 E 14 22 1005.6 - 0.6 - - - - - - -
24/02:30pm 32.0 NNW 11 13 1005.0 - 0.0 - - - - - - -
24/02:00pm 32.1 NNW 11 13 1005.0 - 0.0 - - - - - - -
24/01:30pm 32.2 NW 10 12 1005.2 - 0.0 - - - - - - -
24/01:00pm 31.7 NW 10 12 1005.4 - 0.0 - - - - - - -
24/12:30pm 32.0 NW 10 13 1005.8 - 0.0 - - - - - - -
24/12:00pm 31.8 NNW 10 12 1006.0 - 0.0 - - - - - - -
24/11:30am 31.5 NNW 10 12 1006.4 - 0.0 - - - - - - -
24/11:00am 31.5 NNW 11 14 1006.5 - 0.0 - - - - - - -
24/10:30am 31.6 NNW 10 12 1006.6 - 0.0 - - - - - - -
24/10:00am 31.3 NNW 10 12 1006.5 - 0.0 - - - - - - -
24/09:30am 31.4 NW 10 11 1006.4 - 0.0 - - - - - - -
24/09:00am 31.0 NNW 10 13 1006.3 - 0.0 - - - - - - -
24/08:30am 30.8 NNW 9 13 1005.9 - 0.0 - - - - - - -
24/08:00am 30.3 NNW 9 11 1005.4 - 0.0 - - - - - - -
24/07:30am 29.4 NNE 3 5 1005.3 - 0.0 - - - - - - -
24/07:00am 27.7 NNE 5 6 1005.1 - 0.0 - - - - - - -
24/06:30am 28.2 N 4 5 1004.7 - 0.0 - - - - - - -
24/06:00am 28.4 N 6 7 1004.2 - 0.0 - - - - - - -
24/05:30am 28.3 N 4 5 1004.0 - 0.0 - - - - - - -
24/05:00am 28.6 N 5 7 1004.0 - 0.0 - - - - - - -
24/04:30am 28.4 NNW 5 7 1003.9 - 0.0 - - - - - - -
24/04:00am 28.7 NNW 6 8 1003.6 - 0.0 - - - - - - -
24/03:30am 28.9 NNW 7 9 1003.3 - 0.0 - - - - - - -
24/03:00am 29.1 NW 7 10 1003.3 - 0.0 - - - - - - -
24/02:30am 29.0 NW 6 8 1003.3 - 0.0 - - - - - - -
24/02:00am 29.2 NW 7 9 1003.4 - 0.0 - - - - - - -
24/01:30am 29.2 NW 8 10 1003.7 - 0.0 - - - - - - -
24/01:00am 29.2 NNW 7 9 1004.2 - 0.0 - - - - - - -
24/12:30am 29.3 NNW 9 11 1004.5 - 0.0 - - - - - - -
24/12:00am 29.4 NNW 9 12 1004.9 - 0.0 - - - - - - -
 
Date/Time
EST
Temp

°C
Wind Pressure Rain
since 9am
mm
Weather Cloud Vis
km
Sea
Height
m
Swell
Dir
 
Speed
knots
Gust
knots
hPa Trend Height
m
Period
s
Dir
23/11:30pm 29.6 NW 9 12 1005.0 - 0.0 - - - - - - -
23/11:00pm 29.2 NNW 5 8 1005.1 - 0.0 - - - - - - -
23/10:30pm 29.2 N 6 8 1004.8 - 0.0 - - - - - - -
23/10:00pm 29.2 NNW 6 8 1004.2 - 0.0 - - - - - - -
23/09:30pm 29.0 N 5 6 1003.9 - 0.0 - - - - - - -
23/09:00pm 29.2 N 5 6 1004.0 - 0.0 - - - - - - -
23/08:30pm 29.4 N 5 7 1004.0 - 0.0 - - - - - - -
23/08:00pm 29.3 NNW 5 6 1003.7 - 0.0 - - - - - - -
23/07:30pm 29.7 N 6 8 1003.1 - 0.0 - - - - - - -
23/07:00pm 30.0 N 7 11 1002.7 - 0.0 - - - - - - -
23/06:30pm 30.7 N 9 13 1002.1 - 0.0 - - - - - - -
23/06:00pm 31.1 NNE 7 11 1002.1 - 0.0 - - - - - - -
23/05:30pm 31.6 NNE 9 12 1002.0 - 0.0 - - - - - - -
23/05:00pm 31.8 N 10 14 1001.9 - 0.0 - - - - - - -
23/04:30pm 31.9 N 10 12 1001.8 - 0.0 - - - - - - -
23/04:00pm 32.1 N 11 14 1001.8 - 0.0 - - - - - - -
23/03:30pm 32.8 NNW 11 14 1001.9 - 0.0 - - - - - - -
23/03:00pm 32.5 N 11 14 1002.1 - 0.0 - - - - - - -
23/02:30pm 32.2 NW 11 13 1002.6 - 0.0 - - - - - - -
23/02:00pm 32.4 NW 8 10 1002.6 - 0.0 - - - - - - -
23/01:30pm 31.6 NW 7 9 1003.1 - 0.0 - - - - - - -
23/01:00pm 31.8 NW 5 8 1003.4 - 0.0 - - - - - - -
23/12:30pm 31.2 NE 6 9 1003.9 - 0.0 - - - - - - -
23/12:00pm 31.0 NW 7 8 1004.1 - 0.0 - - - - - - -
23/11:30am 30.9 WNW 6 8 1004.1 - 0.0 - - - - - - -
23/11:00am 31.0 WNW 6 8 1004.2 - 0.0 - - - - - - -
23/10:30am 30.6 W 6 8 1004.6 - 0.0 - - - - - - -
23/10:00am 30.6 W 5 7 1004.4 - 0.0 - - - - - - -
23/09:30am 30.4 W 4 6 1004.3 - 0.0 - - - - - - -
23/09:00am 29.8 W 5 7 1004.2 - 0.0 - - - - - - -
23/08:30am 30.0 WSW 5 7 1004.0 - 0.0 - - - - - - -
23/08:00am 29.5 W 6 9 1003.7 - 0.0 - - - - - - -
23/07:30am 29.6 W 9 12 1003.6 - 0.0 - - - - - - -
23/07:00am 29.4 WNW 9 11 1003.3 - 0.0 - - - - - - -
23/06:30am 28.9 W 8 11 1002.5 - 0.0 - - - - - - -
23/06:00am 29.0 WNW 10 13 1002.4 - 0.0 - - - - - - -
23/05:30am 28.8 WNW 11 15 1002.0 - 0.0 - - - - - - -
23/05:00am 29.0 WNW 12 15 1001.9 - 0.0 - - - - - - -
23/04:30am 28.9 WNW 13 17 1002.1 - 0.0 - - - - - - -

Other Formats:

Comma delimited format used in spreadsheet applications
http://www.bom.gov.au/fwo/IDQ60701/IDQ60701.94254.axf

JavaScript Object Notation format (JSON) in row-major order
http://www.bom.gov.au/fwo/IDQ60701/IDQ60701.94254.json